sensor_id;sensor_type;location;lat;lon;timestamp;pressure;altitude;pressure_sealevel;temperature
45701;BMP280;36277;32.852;-116.998;2022-09-21T00:01:10;99624.56;;;24.98
45701;BMP280;36277;32.852;-116.998;2022-09-21T00:03:37;99624.97;;;24.69
45701;BMP280;36277;32.852;-116.998;2022-09-21T00:06:08;99625.38;;;24.66
45701;BMP280;36277;32.852;-116.998;2022-09-21T00:08:35;99619.91;;;24.92
45701;BMP280;36277;32.852;-116.998;2022-09-21T00:11:02;99618.66;;;25.27
45701;BMP280;36277;32.852;-116.998;2022-09-21T00:13:31;99623.31;;;25.52
45701;BMP280;36277;32.852;-116.998;2022-09-21T00:15:58;99623.69;;;25.75
45701;BMP280;36277;32.852;-116.998;2022-09-21T00:18:25;99624.72;;;25.93
45701;BMP280;36277;32.852;-116.998;2022-09-21T00:20:51;99622.09;;;26.11
45701;BMP280;36277;32.852;-116.998;2022-09-21T00:23:18;99624.09;;;25.91
45701;BMP280;36277;32.852;-116.998;2022-09-21T00:25:45;99622.63;;;25.76
45701;BMP280;36277;32.852;-116.998;2022-09-21T00:28:11;99625.66;;;25.35
45701;BMP280;36277;32.852;-116.998;2022-09-21T00:30:37;99616.53;;;25.16
45701;BMP280;36277;32.852;-116.998;2022-09-21T00:33:04;99622.66;;;25.05
45701;BMP280;36277;32.852;-116.998;2022-09-21T00:35:30;99641.13;;;24.78
45701;BMP280;36277;32.852;-116.998;2022-09-21T00:38:02;99632.44;;;24.88
45701;BMP280;36277;32.852;-116.998;2022-09-21T00:40:31;99626.75;;;25.22
45701;BMP280;36277;32.852;-116.998;2022-09-21T00:43:12;99634.34;;;25.58
45701;BMP280;36277;32.852;-116.998;2022-09-21T00:45:38;99637.28;;;25.76
45701;BMP280;36277;32.852;-116.998;2022-09-21T00:48:05;99637.06;;;25.97
45701;BMP280;36277;32.852;-116.998;2022-09-21T00:50:32;99636.13;;;26.16
45701;BMP280;36277;32.852;-116.998;2022-09-21T00:52:59;99634.00;;;26.18
45701;BMP280;36277;32.852;-116.998;2022-09-21T00:55:28;99644.22;;;26.11
45701;BMP280;36277;32.852;-116.998;2022-09-21T00:58:02;99643.66;;;25.90
45701;BMP280;36277;32.852;-116.998;2022-09-21T01:00:30;99642.66;;;25.26
45701;BMP280;36277;32.852;-116.998;2022-09-21T01:02:56;99645.81;;;24.97
45701;BMP280;36277;32.852;-116.998;2022-09-21T01:05:28;99652.94;;;24.59
45701;BMP280;36277;32.852;-116.998;2022-09-21T01:07:57;99656.84;;;24.84
45701;BMP280;36277;32.852;-116.998;2022-09-21T01:10:30;99647.16;;;25.21
45701;BMP280;36277;32.852;-116.998;2022-09-21T01:13:17;99657.31;;;25.52
45701;BMP280;36277;32.852;-116.998;2022-09-21T01:18:45;99662.81;;;25.91
45701;BMP280;36277;32.852;-116.998;2022-09-21T01:21:24;99662.75;;;26.04
45701;BMP280;36277;32.852;-116.998;2022-09-21T01:29:33;99669.25;;;25.46
45701;BMP280;36277;32.852;-116.998;2022-09-21T01:32:23;99671.72;;;24.96
45701;BMP280;36277;32.852;-116.998;2022-09-21T01:37:56;99672.97;;;24.81
45701;BMP280;36277;32.852;-116.998;2022-09-21T01:40:33;99680.44;;;25.13
45701;BMP280;36277;32.852;-116.998;2022-09-21T01:43:03;99675.81;;;25.32
45701;BMP280;36277;32.852;-116.998;2022-09-21T01:45:43;99681.31;;;25.58
45701;BMP280;36277;32.852;-116.998;2022-09-21T01:48:13;99681.97;;;25.73
45701;BMP280;36277;32.852;-116.998;2022-09-21T01:50:47;99684.94;;;25.91
45701;BMP280;36277;32.852;-116.998;2022-09-21T01:53:25;99682.97;;;26.05
45701;BMP280;36277;32.852;-116.998;2022-09-21T01:55:57;99686.75;;;26.17
45701;BMP280;36277;32.852;-116.998;2022-09-21T02:00:56;99686.22;;;25.82
45701;BMP280;36277;32.852;-116.998;2022-09-21T02:03:37;99686.22;;;25.37
45701;BMP280;36277;32.852;-116.998;2022-09-21T02:06:07;99691.28;;;25.01
45701;BMP280;36277;32.852;-116.998;2022-09-21T02:08:35;99692.44;;;24.53
45701;BMP280;36277;32.852;-116.998;2022-09-21T02:11:04;99692.53;;;24.99
45701;BMP280;36277;32.852;-116.998;2022-09-21T02:13:35;99695.56;;;25.23
45701;BMP280;36277;32.852;-116.998;2022-09-21T02:25:03;99701.53;;;25.91
45701;BMP280;36277;32.852;-116.998;2022-09-21T02:27:52;99695.53;;;26.01
45701;BMP280;36277;32.852;-116.998;2022-09-21T02:30:24;99699.31;;;26.13
45701;BMP280;36277;32.852;-116.998;2022-09-21T02:33:10;99701.81;;;26.27
45701;BMP280;36277;32.852;-116.998;2022-09-21T02:36:07;99699.31;;;26.19
45701;BMP280;36277;32.852;-116.998;2022-09-21T02:38:52;99700.66;;;25.91
45701;BMP280;36277;32.852;-116.998;2022-09-21T02:41:26;99708.56;;;25.48
45701;BMP280;36277;32.852;-116.998;2022-09-21T02:45:05;99711.44;;;25.02
45701;BMP280;36277;32.852;-116.998;2022-09-21T02:47:20;99719.25;;;24.85
45701;BMP280;36277;32.852;-116.998;2022-09-21T02:49:52;99719.16;;;25.19
45701;BMP280;36277;32.852;-116.998;2022-09-21T02:52:22;99713.22;;;25.41
45701;BMP280;36277;32.852;-116.998;2022-09-21T02:54:52;99723.41;;;25.60
45701;BMP280;36277;32.852;-116.998;2022-09-21T02:57:21;99741.25;;;25.77
45701;BMP280;36277;32.852;-116.998;2022-09-21T02:59:49;99740.00;;;25.86
45701;BMP280;36277;32.852;-116.998;2022-09-21T03:02:16;99741.50;;;25.95
45701;BMP280;36277;32.852;-116.998;2022-09-21T03:04:45;99735.34;;;25.61
45701;BMP280;36277;32.852;-116.998;2022-09-21T03:07:15;99753.38;;;25.37
45701;BMP280;36277;32.852;-116.998;2022-09-21T03:09:42;99753.25;;;24.99
45701;BMP280;36277;32.852;-116.998;2022-09-21T03:12:08;99750.06;;;24.89
45701;BMP280;36277;32.852;-116.998;2022-09-21T03:14:35;99751.19;;;25.07
45701;BMP280;36277;32.852;-116.998;2022-09-21T03:17:01;99758.25;;;25.23
45701;BMP280;36277;32.852;-116.998;2022-09-21T03:19:27;99758.91;;;25.37
45701;BMP280;36277;32.852;-116.998;2022-09-21T03:21:54;99762.94;;;25.54
45701;BMP280;36277;32.852;-116.998;2022-09-21T03:24:20;99765.94;;;25.66
45701;BMP280;36277;32.852;-116.998;2022-09-21T03:27:05;99769.13;;;25.76
45701;BMP280;36277;32.852;-116.998;2022-09-21T03:29:31;99773.84;;;25.88
45701;BMP280;36277;32.852;-116.998;2022-09-21T03:31:57;99772.56;;;25.97
45701;BMP280;36277;32.852;-116.998;2022-09-21T03:34:24;99776.81;;;25.93
45701;BMP280;36277;32.852;-116.998;2022-09-21T03:36:50;99777.88;;;25.79
45701;BMP280;36277;32.852;-116.998;2022-09-21T03:39:16;99777.59;;;25.42
45701;BMP280;36277;32.852;-116.998;2022-09-21T03:41:43;99778.38;;;25.10
45701;BMP280;36277;32.852;-116.998;2022-09-21T03:44:09;99783.38;;;24.87
45701;BMP280;36277;32.852;-116.998;2022-09-21T03:46:35;99789.84;;;25.07
45701;BMP280;36277;32.852;-116.998;2022-09-21T03:49:01;99793.31;;;25.22
45701;BMP280;36277;32.852;-116.998;2022-09-21T03:51:28;99795.88;;;25.36
45701;BMP280;36277;32.852;-116.998;2022-09-21T03:53:57;99792.50;;;25.47
45701;BMP280;36277;32.852;-116.998;2022-09-21T03:56:23;99798.47;;;25.57
45701;BMP280;36277;32.852;-116.998;2022-09-21T03:58:50;99801.44;;;25.69
45701;BMP280;36277;32.852;-116.998;2022-09-21T04:01:16;99816.38;;;25.81
45701;BMP280;36277;32.852;-116.998;2022-09-21T04:03:42;99818.28;;;25.87
45701;BMP280;36277;32.852;-116.998;2022-09-21T04:06:09;99810.84;;;25.94
45701;BMP280;36277;32.852;-116.998;2022-09-21T04:08:37;99825.75;;;25.99
45701;BMP280;36277;32.852;-116.998;2022-09-21T04:11:14;99822.75;;;26.07
45701;BMP280;36277;32.852;-116.998;2022-09-21T04:13:41;99827.00;;;26.10
45701;BMP280;36277;32.852;-116.998;2022-09-21T04:16:09;99822.75;;;25.88
45701;BMP280;36277;32.852;-116.998;2022-09-21T04:18:36;99827.56;;;25.53
45701;BMP280;36277;32.852;-116.998;2022-09-21T04:21:04;99829.00;;;25.24
45701;BMP280;36277;32.852;-116.998;2022-09-21T04:23:31;99832.09;;;25.08
45701;BMP280;36277;32.852;-116.998;2022-09-21T04:25:57;99827.31;;;25.23
45701;BMP280;36277;32.852;-116.998;2022-09-21T04:28:24;99833.75;;;25.42
45701;BMP280;36277;32.852;-116.998;2022-09-21T04:30:53;99831.44;;;25.59
45701;BMP280;36277;32.852;-116.998;2022-09-21T04:33:20;99824.84;;;25.66
45701;BMP280;36277;32.852;-116.998;2022-09-21T04:35:54;99826.38;;;25.82
45701;BMP280;36277;32.852;-116.998;2022-09-21T04:38:20;99823.38;;;25.83
45701;BMP280;36277;32.852;-116.998;2022-09-21T04:40:56;99830.81;;;25.96
45701;BMP280;36277;32.852;-116.998;2022-09-21T04:43:23;99832.34;;;25.98
45701;BMP280;36277;32.852;-116.998;2022-09-21T04:45:49;99833.41;;;26.04
45701;BMP280;36277;32.852;-116.998;2022-09-21T04:48:16;99836.78;;;26.12
45701;BMP280;36277;32.852;-116.998;2022-09-21T04:50:43;99829.75;;;26.16
45701;BMP280;36277;32.852;-116.998;2022-09-21T04:53:13;99825.28;;;26.22
45701;BMP280;36277;32.852;-116.998;2022-09-21T04:55:39;99821.25;;;26.11
45701;BMP280;36277;32.852;-116.998;2022-09-21T04:58:05;99815.94;;;25.90
45701;BMP280;36277;32.852;-116.998;2022-09-21T05:00:32;99818.88;;;25.56
45701;BMP280;36277;32.852;-116.998;2022-09-21T05:02:58;99822.88;;;25.34
45701;BMP280;36277;32.852;-116.998;2022-09-21T05:05:24;99823.09;;;25.46
45701;BMP280;36277;32.852;-116.998;2022-09-21T05:07:50;99821.22;;;25.59
45701;BMP280;36277;32.852;-116.998;2022-09-21T05:10:17;99822.50;;;25.76
45701;BMP280;36277;32.852;-116.998;2022-09-21T05:12:43;99829.31;;;25.87
45701;BMP280;36277;32.852;-116.998;2022-09-21T05:15:09;99829.13;;;25.95
45701;BMP280;36277;32.852;-116.998;2022-09-21T05:17:39;99828.69;;;26.04
45701;BMP280;36277;32.852;-116.998;2022-09-21T05:20:06;99829.56;;;26.11
45701;BMP280;36277;32.852;-116.998;2022-09-21T05:22:32;99831.66;;;26.16
45701;BMP280;36277;32.852;-116.998;2022-09-21T05:24:58;99840.19;;;26.21
45701;BMP280;36277;32.852;-116.998;2022-09-21T05:27:25;99833.78;;;26.27
45701;BMP280;36277;32.852;-116.998;2022-09-21T05:29:51;99827.59;;;26.31
45701;BMP280;36277;32.852;-116.998;2022-09-21T05:32:53;99829.53;;;26.37
45701;BMP280;36277;32.852;-116.998;2022-09-21T05:35:36;99834.22;;;26.37
45701;BMP280;36277;32.852;-116.998;2022-09-21T05:40:32;99844.41;;;26.42
45701;BMP280;36277;32.852;-116.998;2022-09-21T05:42:59;99849.34;;;26.02
45701;BMP280;36277;32.852;-116.998;2022-09-21T05:45:26;99842.69;;;25.64
45701;BMP280;36277;32.852;-116.998;2022-09-21T05:47:55;99842.38;;;25.27
45701;BMP280;36277;32.852;-116.998;2022-09-21T05:50:55;99850.66;;;25.27
45701;BMP280;36277;32.852;-116.998;2022-09-21T06:03:56;99878.03;;;25.81
45701;BMP280;36277;32.852;-116.998;2022-09-21T06:06:23;99873.56;;;25.87
45701;BMP280;36277;32.852;-116.998;2022-09-21T06:08:50;99875.72;;;25.91
45701;BMP280;36277;32.852;-116.998;2022-09-21T06:11:16;99876.13;;;25.95
45701;BMP280;36277;32.852;-116.998;2022-09-21T06:13:42;99871.06;;;25.98
45701;BMP280;36277;32.852;-116.998;2022-09-21T06:16:08;99877.19;;;26.00
45701;BMP280;36277;32.852;-116.998;2022-09-21T06:18:38;99872.94;;;26.04
45701;BMP280;36277;32.852;-116.998;2022-09-21T06:21:06;99869.53;;;26.02
45701;BMP280;36277;32.852;-116.998;2022-09-21T06:23:33;99866.13;;;25.94
45701;BMP280;36277;32.852;-116.998;2022-09-21T06:25:59;99872.97;;;25.85
45701;BMP280;36277;32.852;-116.998;2022-09-21T06:28:26;99871.66;;;25.87
45701;BMP280;36277;32.852;-116.998;2022-09-21T06:30:54;99872.50;;;25.88
45701;BMP280;36277;32.852;-116.998;2022-09-21T06:33:21;99880.81;;;25.81
45701;BMP280;36277;32.852;-116.998;2022-09-21T06:35:57;99880.06;;;25.40
45701;BMP280;36277;32.852;-116.998;2022-09-21T06:38:26;99871.56;;;25.02
45701;BMP280;36277;32.852;-116.998;2022-09-21T06:40:53;99875.47;;;24.67
45701;BMP280;36277;32.852;-116.998;2022-09-21T06:43:20;99870.75;;;24.33
45701;BMP280;36277;32.852;-116.998;2022-09-21T06:45:58;99871.59;;;24.07
45701;BMP280;36277;32.852;-116.998;2022-09-21T06:48:25;99869.84;;;23.78
45701;BMP280;36277;32.852;-116.998;2022-09-21T06:50:59;99867.91;;;23.58
45701;BMP280;36277;32.852;-116.998;2022-09-21T06:53:27;99862.66;;;23.42
45701;BMP280;36277;32.852;-116.998;2022-09-21T06:56:00;99864.25;;;23.30
45701;BMP280;36277;32.852;-116.998;2022-09-21T06:58:26;99867.13;;;22.93
45701;BMP280;36277;32.852;-116.998;2022-09-21T07:00:53;99863.94;;;22.90
45701;BMP280;36277;32.852;-116.998;2022-09-21T07:03:19;99865.53;;;22.70
45701;BMP280;36277;32.852;-116.998;2022-09-21T07:05:45;99868.28;;;22.70
45701;BMP280;36277;32.852;-116.998;2022-09-21T07:08:12;99868.59;;;22.60
45701;BMP280;36277;32.852;-116.998;2022-09-21T07:10:38;99867.06;;;22.87
45701;BMP280;36277;32.852;-116.998;2022-09-21T07:13:04;99862.97;;;23.11
45701;BMP280;36277;32.852;-116.998;2022-09-21T07:15:32;99864.88;;;23.32
45701;BMP280;36277;32.852;-116.998;2022-09-21T07:17:58;99860.56;;;23.44
45701;BMP280;36277;32.852;-116.998;2022-09-21T07:20:24;99861.28;;;23.52
45701;BMP280;36277;32.852;-116.998;2022-09-21T07:22:50;99859.47;;;23.38
45701;BMP280;36277;32.852;-116.998;2022-09-21T07:25:17;99858.19;;;23.20
45701;BMP280;36277;32.852;-116.998;2022-09-21T07:27:43;99864.66;;;22.98
45701;BMP280;36277;32.852;-116.998;2022-09-21T07:30:10;99861.00;;;22.77
45701;BMP280;36277;32.852;-116.998;2022-09-21T07:32:36;99861.19;;;22.90
45701;BMP280;36277;32.852;-116.998;2022-09-21T07:35:02;99855.94;;;23.09
45701;BMP280;36277;32.852;-116.998;2022-09-21T07:37:30;99860.34;;;23.24
45701;BMP280;36277;32.852;-116.998;2022-09-21T07:39:56;99852.81;;;23.33
45701;BMP280;36277;32.852;-116.998;2022-09-21T07:42:22;99862.28;;;23.45
45701;BMP280;36277;32.852;-116.998;2022-09-21T07:44:51;99852.84;;;23.54
45701;BMP280;36277;32.852;-116.998;2022-09-21T07:47:18;99859.25;;;23.61
45701;BMP280;36277;32.852;-116.998;2022-09-21T07:49:44;99852.97;;;23.46
45701;BMP280;36277;32.852;-116.998;2022-09-21T07:52:11;99856.75;;;23.24
45701;BMP280;36277;32.852;-116.998;2022-09-21T07:54:38;99850.91;;;22.98
45701;BMP280;36277;32.852;-116.998;2022-09-21T07:57:04;99860.91;;;22.85
45701;BMP280;36277;32.852;-116.998;2022-09-21T07:59:49;99856.59;;;22.97
45701;BMP280;36277;32.852;-116.998;2022-09-21T08:02:15;99854.88;;;23.10
45701;BMP280;36277;32.852;-116.998;2022-09-21T08:04:41;99859.22;;;23.19
45701;BMP280;36277;32.852;-116.998;2022-09-21T08:07:07;99855.13;;;23.29
45701;BMP280;36277;32.852;-116.998;2022-09-21T08:09:33;99861.16;;;23.39
45701;BMP280;36277;32.852;-116.998;2022-09-21T08:12:00;99865.47;;;23.48
45701;BMP280;36277;32.852;-116.998;2022-09-21T08:14:26;99859.59;;;23.51
45701;BMP280;36277;32.852;-116.998;2022-09-21T08:16:54;99853.09;;;23.59
45701;BMP280;36277;32.852;-116.998;2022-09-21T08:19:20;99848.72;;;23.64
45701;BMP280;36277;32.852;-116.998;2022-09-21T08:21:50;99852.56;;;23.70
45701;BMP280;36277;32.852;-116.998;2022-09-21T08:24:16;99855.78;;;23.73
45701;BMP280;36277;32.852;-116.998;2022-09-21T08:26:42;99854.22;;;23.43
45701;BMP280;36277;32.852;-116.998;2022-09-21T08:29:09;99852.56;;;23.28
45701;BMP280;36277;32.852;-116.998;2022-09-21T08:31:36;99851.56;;;23.00
45701;BMP280;36277;32.852;-116.998;2022-09-21T08:34:02;99849.22;;;22.83
45701;BMP280;36277;32.852;-116.998;2022-09-21T08:36:29;99854.25;;;22.94
45701;BMP280;36277;32.852;-116.998;2022-09-21T08:38:55;99856.47;;;23.04
45701;BMP280;36277;32.852;-116.998;2022-09-21T08:42:04;99851.56;;;23.14
45701;BMP280;36277;32.852;-116.998;2022-09-21T08:44:47;99847.84;;;23.22
45701;BMP280;36277;32.852;-116.998;2022-09-21T08:47:55;99844.75;;;23.31
45701;BMP280;36277;32.852;-116.998;2022-09-21T08:53:38;99844.91;;;23.44
45701;BMP280;36277;32.852;-116.998;2022-09-21T08:55:57;99847.66;;;23.44
45701;BMP280;36277;32.852;-116.998;2022-09-21T08:58:28;99847.34;;;23.54
45701;BMP280;36277;32.852;-116.998;2022-09-21T09:01:05;99851.19;;;23.59
45701;BMP280;36277;32.852;-116.998;2022-09-21T09:03:46;99852.50;;;23.63
45701;BMP280;36277;32.852;-116.998;2022-09-21T09:22:22;99858.72;;;23.72
45701;BMP280;36277;32.852;-116.998;2022-09-21T09:24:51;99845.78;;;23.72
45701;BMP280;36277;32.852;-116.998;2022-09-21T09:27:27;99843.81;;;23.81
45701;BMP280;36277;32.852;-116.998;2022-09-21T09:38:22;99849.28;;;23.39
45701;BMP280;36277;32.852;-116.998;2022-09-21T09:41:12;99841.50;;;23.42
45701;BMP280;36277;32.852;-116.998;2022-09-21T09:44:03;99846.41;;;23.47
45701;BMP280;36277;32.852;-116.998;2022-09-21T09:51:57;99848.06;;;23.62
45701;BMP280;36277;32.852;-116.998;2022-09-21T09:54:26;99840.88;;;23.68
45701;BMP280;36277;32.852;-116.998;2022-09-21T09:56:54;99843.47;;;23.69
45701;BMP280;36277;32.852;-116.998;2022-09-21T09:59:31;99830.44;;;23.78
45701;BMP280;36277;32.852;-116.998;2022-09-21T10:02:09;99845.03;;;23.78
45701;BMP280;36277;32.852;-116.998;2022-09-21T10:10:01;99844.03;;;23.86
45701;BMP280;36277;32.852;-116.998;2022-09-21T10:12:29;99850.69;;;23.91
45701;BMP280;36277;32.852;-116.998;2022-09-21T10:14:56;99843.94;;;23.52
45701;BMP280;36277;32.852;-116.998;2022-09-21T10:17:25;99841.16;;;23.31
45701;BMP280;36277;32.852;-116.998;2022-09-21T10:20:18;99836.03;;;22.93
45701;BMP280;36277;32.852;-116.998;2022-09-21T10:22:53;99832.56;;;23.05
45701;BMP280;36277;32.852;-116.998;2022-09-21T10:25:20;99836.28;;;23.12
45701;BMP280;36277;32.852;-116.998;2022-09-21T10:27:49;99834.25;;;23.20
45701;BMP280;36277;32.852;-116.998;2022-09-21T10:30:34;99836.88;;;23.28
45701;BMP280;36277;32.852;-116.998;2022-09-21T10:33:01;99832.25;;;23.29
45701;BMP280;36277;32.852;-116.998;2022-09-21T10:35:27;99835.72;;;23.37
45701;BMP280;36277;32.852;-116.998;2022-09-21T10:38:15;99832.91;;;23.52
45701;BMP280;36277;32.852;-116.998;2022-09-21T10:40:43;99838.41;;;23.52
45701;BMP280;36277;32.852;-116.998;2022-09-21T10:43:30;99832.19;;;23.64
45701;BMP280;36277;32.852;-116.998;2022-09-21T10:45:58;99826.00;;;23.62
45701;BMP280;36277;32.852;-116.998;2022-09-21T10:48:26;99838.19;;;23.74
45701;BMP280;36277;32.852;-116.998;2022-09-21T10:50:54;99834.03;;;23.78
45701;BMP280;36277;32.852;-116.998;2022-09-21T10:53:27;99832.19;;;23.85
45701;BMP280;36277;32.852;-116.998;2022-09-21T10:58:30;99829.88;;;23.89
45701;BMP280;36277;32.852;-116.998;2022-09-21T11:01:21;99833.16;;;23.99
45701;BMP280;36277;32.852;-116.998;2022-09-21T11:06:30;99832.13;;;24.06
45701;BMP280;36277;32.852;-116.998;2022-09-21T11:09:12;99839.56;;;24.06
45701;BMP280;36277;32.852;-116.998;2022-09-21T11:15:02;99828.06;;;24.02
45701;BMP280;36277;32.852;-116.998;2022-09-21T11:20:29;99830.03;;;24.08
45701;BMP280;36277;32.852;-116.998;2022-09-21T11:28:49;99824.63;;;24.21
45701;BMP280;36277;32.852;-116.998;2022-09-21T11:34:21;99822.16;;;24.32
45701;BMP280;36277;32.852;-116.998;2022-09-21T11:40:02;99827.25;;;24.35
45701;BMP280;36277;32.852;-116.998;2022-09-21T11:45:52;99818.22;;;24.14
45701;BMP280;36277;32.852;-116.998;2022-09-21T11:56:38;99826.63;;;24.06
45701;BMP280;36277;32.852;-116.998;2022-09-21T12:16:48;99840.09;;;23.95
45701;BMP280;36277;32.852;-116.998;2022-09-21T12:22:44;99844.59;;;24.02
45701;BMP280;36277;32.852;-116.998;2022-09-21T12:25:27;99858.41;;;24.02
45701;BMP280;36277;32.852;-116.998;2022-09-21T12:30:43;99861.81;;;24.04
45701;BMP280;36277;32.852;-116.998;2022-09-21T12:36:12;99858.03;;;24.12
45701;BMP280;36277;32.852;-116.998;2022-09-21T12:41:32;99861.72;;;23.91
45701;BMP280;36277;32.852;-116.998;2022-09-21T12:44:23;99859.78;;;23.71
45701;BMP280;36277;32.852;-116.998;2022-09-21T12:49:27;99859.38;;;23.32
45701;BMP280;36277;32.852;-116.998;2022-09-21T12:51:59;99857.16;;;23.42
45701;BMP280;36277;32.852;-116.998;2022-09-21T12:54:43;99853.41;;;23.49
45701;BMP280;36277;32.852;-116.998;2022-09-21T12:57:40;99854.06;;;23.51
45701;BMP280;36277;32.852;-116.998;2022-09-21T13:00:14;99855.78;;;23.52
45701;BMP280;36277;32.852;-116.998;2022-09-21T13:08:42;99862.00;;;23.61
45701;BMP280;36277;32.852;-116.998;2022-09-21T13:11:10;99857.63;;;23.66
45701;BMP280;36277;32.852;-116.998;2022-09-21T13:13:43;99857.69;;;23.73
45701;BMP280;36277;32.852;-116.998;2022-09-21T13:16:31;99858.13;;;23.76
45701;BMP280;36277;32.852;-116.998;2022-09-21T13:21:27;99866.91;;;23.80
45701;BMP280;36277;32.852;-116.998;2022-09-21T13:23:58;99867.97;;;23.79
45701;BMP280;36277;32.852;-116.998;2022-09-21T13:26:49;99866.97;;;23.86
45701;BMP280;36277;32.852;-116.998;2022-09-21T13:32:00;99879.09;;;23.92
45701;BMP280;36277;32.852;-116.998;2022-09-21T13:34:43;99888.22;;;23.92
45701;BMP280;36277;32.852;-116.998;2022-09-21T13:37:12;99889.47;;;23.90
45701;BMP280;36277;32.852;-116.998;2022-09-21T13:39:43;99891.88;;;23.99
45701;BMP280;36277;32.852;-116.998;2022-09-21T13:44:59;99895.69;;;23.98
45701;BMP280;36277;32.852;-116.998;2022-09-21T13:47:37;99897.25;;;24.07
45701;BMP280;36277;32.852;-116.998;2022-09-21T13:50:24;99895.38;;;24.08
45701;BMP280;36277;32.852;-116.998;2022-09-21T13:52:54;99895.16;;;24.09
45701;BMP280;36277;32.852;-116.998;2022-09-21T13:55:33;99893.72;;;24.13
45701;BMP280;36277;32.852;-116.998;2022-09-21T13:58:04;99902.56;;;24.09
45701;BMP280;36277;32.852;-116.998;2022-09-21T14:00:40;99890.25;;;24.05
45701;BMP280;36277;32.852;-116.998;2022-09-21T14:03:22;99897.75;;;23.75
45701;BMP280;36277;32.852;-116.998;2022-09-21T14:05:59;99897.88;;;23.46
45701;BMP280;36277;32.852;-116.998;2022-09-21T14:08:39;99902.59;;;23.31
45701;BMP280;36277;32.852;-116.998;2022-09-21T14:11:30;99908.81;;;23.40
45701;BMP280;36277;32.852;-116.998;2022-09-21T14:27:35;99912.50;;;23.82
45701;BMP280;36277;32.852;-116.998;2022-09-21T14:35:26;99914.13;;;23.77
45701;BMP280;36277;32.852;-116.998;2022-09-21T14:37:58;99919.63;;;23.77
45701;BMP280;36277;32.852;-116.998;2022-09-21T14:40:33;99922.03;;;23.80
45701;BMP280;36277;32.852;-116.998;2022-09-21T14:43:28;99924.56;;;23.81
45701;BMP280;36277;32.852;-116.998;2022-09-21T14:46:15;99923.50;;;23.61
45701;BMP280;36277;32.852;-116.998;2022-09-21T14:59:54;99922.78;;;23.74
45701;BMP280;36277;32.852;-116.998;2022-09-21T15:02:29;99924.66;;;23.73
45701;BMP280;36277;32.852;-116.998;2022-09-21T15:05:17;99923.47;;;23.40
45701;BMP280;36277;32.852;-116.998;2022-09-21T15:10:50;99919.81;;;22.90
45701;BMP280;36277;32.852;-116.998;2022-09-21T15:16:40;99925.69;;;23.16
45701;BMP280;36277;32.852;-116.998;2022-09-21T15:19:24;99917.03;;;23.33
45701;BMP280;36277;32.852;-116.998;2022-09-21T15:21:53;99922.03;;;23.44
45701;BMP280;36277;32.852;-116.998;2022-09-21T15:24:31;99919.72;;;23.48
45701;BMP280;36277;32.852;-116.998;2022-09-21T15:27:18;99928.53;;;23.22
45701;BMP280;36277;32.852;-116.998;2022-09-21T15:29:48;99933.78;;;22.89
45701;BMP280;36277;32.852;-116.998;2022-09-21T15:35:04;99927.97;;;22.69
45701;BMP280;36277;32.852;-116.998;2022-09-21T15:37:36;99932.91;;;22.88
45701;BMP280;36277;32.852;-116.998;2022-09-21T15:40:14;99940.78;;;23.05
45701;BMP280;36277;32.852;-116.998;2022-09-21T15:45:27;99942.59;;;23.13
45701;BMP280;36277;32.852;-116.998;2022-09-21T15:47:55;99934.69;;;22.96
45701;BMP280;36277;32.852;-116.998;2022-09-21T15:50:24;99936.97;;;22.78
45701;BMP280;36277;32.852;-116.998;2022-09-21T15:53:04;99938.59;;;22.58
45701;BMP280;36277;32.852;-116.998;2022-09-21T15:55:33;99944.75;;;22.45
45701;BMP280;36277;32.852;-116.998;2022-09-21T15:58:00;99940.97;;;22.61
45701;BMP280;36277;32.852;-116.998;2022-09-21T16:00:33;99941.28;;;22.80
45701;BMP280;36277;32.852;-116.998;2022-09-21T16:03:05;99948.44;;;22.96
45701;BMP280;36277;32.852;-116.998;2022-09-21T16:05:50;99940.50;;;23.15
45701;BMP280;36277;32.852;-116.998;2022-09-21T16:11:31;99938.09;;;22.69
45701;BMP280;36277;32.852;-116.998;2022-09-21T16:14:10;99948.84;;;22.49
45701;BMP280;36277;32.852;-116.998;2022-09-21T16:20:17;99948.06;;;22.70
45701;BMP280;36277;32.852;-116.998;2022-09-21T16:22:52;99955.50;;;22.84
45701;BMP280;36277;32.852;-116.998;2022-09-21T16:25:23;99959.75;;;23.00
45701;BMP280;36277;32.852;-116.998;2022-09-21T16:27:53;99956.63;;;23.18
45701;BMP280;36277;32.852;-116.998;2022-09-21T16:30:47;99961.09;;;23.04
45701;BMP280;36277;32.852;-116.998;2022-09-21T16:36:10;99955.13;;;22.72
45701;BMP280;36277;32.852;-116.998;2022-09-21T16:38:51;99951.41;;;22.65
45701;BMP280;36277;32.852;-116.998;2022-09-21T16:41:22;99956.53;;;22.83
45701;BMP280;36277;32.852;-116.998;2022-09-21T16:43:51;99953.97;;;22.96
45701;BMP280;36277;32.852;-116.998;2022-09-21T16:46:20;99951.06;;;23.11
45701;BMP280;36277;32.852;-116.998;2022-09-21T16:48:47;99953.59;;;23.27
45701;BMP280;36277;32.852;-116.998;2022-09-21T16:51:15;99959.28;;;23.40
45701;BMP280;36277;32.852;-116.998;2022-09-21T16:53:54;99954.94;;;23.52
45701;BMP280;36277;32.852;-116.998;2022-09-21T16:56:21;99957.78;;;23.59
45701;BMP280;36277;32.852;-116.998;2022-09-21T16:58:47;99947.31;;;23.69
45701;BMP280;36277;32.852;-116.998;2022-09-21T17:01:16;99961.66;;;23.79
45701;BMP280;36277;32.852;-116.998;2022-09-21T17:03:46;99952.41;;;23.86
45701;BMP280;36277;32.852;-116.998;2022-09-21T17:06:19;99953.34;;;23.93
45701;BMP280;36277;32.852;-116.998;2022-09-21T17:08:47;99957.19;;;23.99
45701;BMP280;36277;32.852;-116.998;2022-09-21T17:11:18;99960.47;;;24.09
45701;BMP280;36277;32.852;-116.998;2022-09-21T17:13:47;99955.69;;;24.17
45701;BMP280;36277;32.852;-116.998;2022-09-21T17:16:15;99949.63;;;24.07
45701;BMP280;36277;32.852;-116.998;2022-09-21T17:18:47;99939.88;;;24.05
45701;BMP280;36277;32.852;-116.998;2022-09-21T17:21:15;99944.00;;;23.94
45701;BMP280;36277;32.852;-116.998;2022-09-21T17:23:41;99942.06;;;23.74